Skip Navigation Links
NOAA logo - Click to go to the NOAA homepage
NOAA's National Weather Service
Alaska Aviation Weather Unit
  NWS logo - Click to go to the NWS homepage
Left Navbar Graphic     23 AKDT = 07 GMT

   
NOAA is celebrating 200 years of science, service, and stewardship. Visit the NOAA 200th celebration Web site to learn more.
USA.gov is the U.S. Government's official Web portal to all Federal, state and local government Web resources and services.
Facebook
NWS on Facebook

Important Change Regarding the AAWU Web Presence

 

Over the last several months, the AAWU has been working to navigate its webpages to a nationally supported server. Security, as well as other needs, have necessitated the change.  In the process, we have made an effort to enhance the functionality of our website, as well as some of our products. As of June 20, 2017, aawu.arh.noaa.gov will be discontinued. The new AAWU web address is weather.gov/aawu. It is now live and will run in-parallel with the old site until it is discontinued. Please send any feedback or questions regarding the new webpages to nws.ar.aawu.webauthors@noaa.gov.  Thank you for your patience during this time of transition.
AAWU Home :: Display TAF Add Bookmark
TAF PASN 240530Z 2406/2506 23010KT P6SM VCSH SCT020
      TEMPO 2407/2410 -SHRA BKN020
     FM241800 25016G25KT 6SM -SHRA SCT020 OVC035=

METAR PASN 240153Z AUTO 20008KT 10SM FEW017 BKN060 07/02 A2970 RMK AO2 SLP056 T00720022 TSNO= METAR PASN 240253Z AUTO 22015KT 10SM CLR 07/02 A2969 RMK AO2 SLP056 T00720022 56004 TSNO= PASN 240337Z AUTO 21010KT 10SM FEW015 SCT020 BKN027 06/02 A2969= METAR PASN 240353Z AUTO 23015KT 10SM FEW014 SCT025 BKN030 07/02 A2969 RMK AO2 SLP054 T00670017 TSNO= METAR PASN 240453Z AUTO 23011KT 10SM CLR 06/02 A2968 RMK AO2 SLP052 T00610017 TSNO= METAR PASN 240553Z AUTO 21009KT 9SM FEW050 SCT085 04/01 A2968 RMK AO2 SLP052 T00440011 10083 20044 55003 TSNO= PASN 240610Z AUTO 20014KT 9SM FEW015 SCT020 BKN026 04/01 A2969= PASN 240635Z AUTO 23010KT 10SM -RA FEW014 BKN034 OVC055 04/02 A2968= METAR PASN 240653Z AUTO 23008KT 9SM -RA FEW012 BKN017 OVC042 04/02 A2968 RMK AO2 RAB12 SLP052 P0000 T00390022 TSNO= PASN 240703Z AUTO 25010KT 7SM -RA FEW009 BKN012 OVC029 03/01 A2969= PASN 240730Z AUTO 22010KT 9SM SCT011 BKN049 OVC085 03/02 A2969=
 Alaska TAF Map

NOAA's National Weather Service
Alaska Aviation Weather Unit
6930 Sand Lake Road
Anchorage, AK 99502-1845
Disclaimer
Credits
Glossary
Privacy Policy
About Us
Career Opportunities
Contact AAWU Internet Services Site last modified: April, 17th 2012